sensor_id;sensor_type;location;lat;lon;timestamp;pressure;altitude;pressure_sealevel;temperature;humidity
77027;BME280;65956;52.986;17.490;2023-10-19T00:00:35;99847.19;;;2.49;84.95
77027;BME280;65956;52.986;17.490;2023-10-19T00:03:25;99846.91;;;2.28;84.07
77027;BME280;65956;52.986;17.490;2023-10-19T00:05:55;99844.75;;;2.14;83.81
77027;BME280;65956;52.986;17.490;2023-10-19T00:08:21;99841.91;;;2.04;84.10
77027;BME280;65956;52.986;17.490;2023-10-19T00:10:53;99838.91;;;1.99;84.47
77027;BME280;65956;52.986;17.490;2023-10-19T00:13:28;99836.27;;;1.94;84.79
77027;BME280;65956;52.986;17.490;2023-10-19T00:15:56;99831.79;;;1.92;84.98
77027;BME280;65956;52.986;17.490;2023-10-19T00:18:24;99826.98;;;1.90;85.07
77027;BME280;65956;52.986;17.490;2023-10-19T00:20:52;99822.95;;;1.85;85.13
77027;BME280;65956;52.986;17.490;2023-10-19T00:23:21;99821.38;;;1.81;85.48
77027;BME280;65956;52.986;17.490;2023-10-19T00:26:06;99817.61;;;1.80;85.73
77027;BME280;65956;52.986;17.490;2023-10-19T00:28:53;99815.84;;;1.80;85.95
77027;BME280;65956;52.986;17.490;2023-10-19T00:31:22;99813.70;;;1.84;86.17
77027;BME280;65956;52.986;17.490;2023-10-19T00:33:49;99810.77;;;1.87;86.25
77027;BME280;65956;52.986;17.490;2023-10-19T00:36:19;99804.42;;;1.87;86.28
77027;BME280;65956;52.986;17.490;2023-10-19T00:38:47;99808.63;;;1.86;86.46
77027;BME280;65956;52.986;17.490;2023-10-19T00:41:21;99800.14;;;1.86;86.41
77027;BME280;65956;52.986;17.490;2023-10-19T00:43:48;99798.00;;;1.86;86.54
77027;BME280;65956;52.986;17.490;2023-10-19T00:46:16;99789.30;;;1.88;86.72
77027;BME280;65956;52.986;17.490;2023-10-19T00:49:05;99788.77;;;1.92;87.06
77027;BME280;65956;52.986;17.490;2023-10-19T00:51:38;99785.10;;;1.98;87.37
77027;BME280;65956;52.986;17.490;2023-10-19T00:54:27;99781.52;;;2.04;87.44
77027;BME280;65956;52.986;17.490;2023-10-19T00:57:03;99776.55;;;2.11;87.55
77027;BME280;65956;52.986;17.490;2023-10-19T00:59:37;99770.98;;;2.17;87.57
77027;BME280;65956;52.986;17.490;2023-10-19T01:02:15;99769.00;;;2.23;87.61
77027;BME280;65956;52.986;17.490;2023-10-19T01:04:52;99766.16;;;2.29;87.60
77027;BME280;65956;52.986;17.490;2023-10-19T01:07:28;99767.02;;;2.33;87.34
77027;BME280;65956;52.986;17.490;2023-10-19T01:10:04;99770.59;;;2.37;87.36
77027;BME280;65956;52.986;17.490;2023-10-19T01:12:32;99764.56;;;2.38;87.19
77027;BME280;65956;52.986;17.490;2023-10-19T01:17:36;99755.13;;;2.38;87.15
77027;BME280;65956;52.986;17.490;2023-10-19T01:20:11;99752.46;;;2.36;86.94
77027;BME280;65956;52.986;17.490;2023-10-19T01:23:03;99751.77;;;2.35;86.69
77027;BME280;65956;52.986;17.490;2023-10-19T01:25:51;99745.02;;;2.34;86.98
77027;BME280;65956;52.986;17.490;2023-10-19T01:31:09;99736.48;;;2.33;87.35
77027;BME280;65956;52.986;17.490;2023-10-19T01:33:42;99733.89;;;2.32;87.22
77027;BME280;65956;52.986;17.490;2023-10-19T01:36:10;99725.06;;;2.30;87.20
77027;BME280;65956;52.986;17.490;2023-10-19T01:38:37;99725.02;;;2.30;87.23
77027;BME280;65956;52.986;17.490;2023-10-19T01:41:05;99722.40;;;2.29;87.43
77027;BME280;65956;52.986;17.490;2023-10-19T01:43:43;99719.75;;;2.29;87.54
77027;BME280;65956;52.986;17.490;2023-10-19T01:46:10;99713.70;;;2.29;87.64
77027;BME280;65956;52.986;17.490;2023-10-19T01:48:48;99705.75;;;2.29;87.77
77027;BME280;65956;52.986;17.490;2023-10-19T01:51:16;99697.23;;;2.28;87.71
77027;BME280;65956;52.986;17.490;2023-10-19T01:53:42;99687.54;;;2.27;87.97
77027;BME280;65956;52.986;17.490;2023-10-19T01:56:11;99685.96;;;2.27;87.87
77027;BME280;65956;52.986;17.490;2023-10-19T01:58:40;99680.36;;;2.27;87.82
77027;BME280;65956;52.986;17.490;2023-10-19T02:01:07;99672.49;;;2.25;87.93
77027;BME280;65956;52.986;17.490;2023-10-19T02:03:43;99664.38;;;2.25;87.97
77027;BME280;65956;52.986;17.490;2023-10-19T02:06:14;99657.33;;;2.24;88.13
77027;BME280;65956;52.986;17.490;2023-10-19T02:11:24;99647.27;;;2.21;88.14
77027;BME280;65956;52.986;17.490;2023-10-19T02:13:55;99644.02;;;2.21;88.21
77027;BME280;65956;52.986;17.490;2023-10-19T02:16:22;99642.48;;;2.20;88.20
77027;BME280;65956;52.986;17.490;2023-10-19T02:18:49;99634.45;;;2.17;87.93
77027;BME280;65956;52.986;17.490;2023-10-19T02:21:16;99630.95;;;2.14;88.05
77027;BME280;65956;52.986;17.490;2023-10-19T02:23:53;99627.90;;;2.10;87.82
77027;BME280;65956;52.986;17.490;2023-10-19T02:26:20;99625.70;;;2.06;87.76
77027;BME280;65956;52.986;17.490;2023-10-19T02:28:49;99624.17;;;2.03;87.57
77027;BME280;65956;52.986;17.490;2023-10-19T02:31:17;99609.81;;;1.99;87.70
77027;BME280;65956;52.986;17.490;2023-10-19T02:33:48;99605.79;;;1.97;87.66
77027;BME280;65956;52.986;17.490;2023-10-19T02:36:18;99606.54;;;1.94;87.69
77027;BME280;65956;52.986;17.490;2023-10-19T02:38:46;99606.54;;;1.93;87.65
77027;BME280;65956;52.986;17.490;2023-10-19T02:41:18;99599.52;;;1.91;87.73
77027;BME280;65956;52.986;17.490;2023-10-19T02:43:47;99600.55;;;1.90;87.66
77027;BME280;65956;52.986;17.490;2023-10-19T02:46:17;99595.80;;;1.91;88.09
77027;BME280;65956;52.986;17.490;2023-10-19T02:48:44;99593.56;;;1.92;88.22
77027;BME280;65956;52.986;17.490;2023-10-19T02:51:12;99595.16;;;1.94;88.51
77027;BME280;65956;52.986;17.490;2023-10-19T02:53:39;99590.98;;;1.96;88.50
77027;BME280;65956;52.986;17.490;2023-10-19T02:56:10;99590.94;;;1.97;88.46
77027;BME280;65956;52.986;17.490;2023-10-19T02:58:38;99584.80;;;1.96;88.25
77027;BME280;65956;52.986;17.490;2023-10-19T03:01:20;99580.85;;;1.95;88.36
77027;BME280;65956;52.986;17.490;2023-10-19T03:03:54;99580.27;;;1.93;88.23
77027;BME280;65956;52.986;17.490;2023-10-19T03:06:27;99582.48;;;1.91;88.18
77027;BME280;65956;52.986;17.490;2023-10-19T03:08:59;99577.48;;;1.90;88.10
77027;BME280;65956;52.986;17.490;2023-10-19T03:11:30;99574.70;;;1.89;88.23
77027;BME280;65956;52.986;17.490;2023-10-19T03:14:00;99577.09;;;1.88;88.13
77027;BME280;65956;52.986;17.490;2023-10-19T03:16:30;99571.95;;;1.87;88.16
77027;BME280;65956;52.986;17.490;2023-10-19T03:18:56;99573.76;;;1.85;88.28
77027;BME280;65956;52.986;17.490;2023-10-19T03:21:22;99571.52;;;1.84;88.38
77027;BME280;65956;52.986;17.490;2023-10-19T03:23:56;99569.21;;;1.83;88.34
77027;BME280;65956;52.986;17.490;2023-10-19T03:26:28;99564.16;;;1.82;88.26
77027;BME280;65956;52.986;17.490;2023-10-19T03:28:57;99559.36;;;1.80;88.20
77027;BME280;65956;52.986;17.490;2023-10-19T03:31:28;99553.63;;;1.78;88.23
77027;BME280;65956;52.986;17.490;2023-10-19T03:33:54;99554.75;;;1.76;88.14
77027;BME280;65956;52.986;17.490;2023-10-19T03:36:23;99550.13;;;1.74;88.24
77027;BME280;65956;52.986;17.490;2023-10-19T03:38:51;99545.34;;;1.75;88.17
77027;BME280;65956;52.986;17.490;2023-10-19T03:41:20;99542.73;;;1.74;88.14
77027;BME280;65956;52.986;17.490;2023-10-19T03:43:55;99545.09;;;1.74;88.24
77027;BME280;65956;52.986;17.490;2023-10-19T03:46:23;99543.92;;;1.74;88.29
77027;BME280;65956;52.986;17.490;2023-10-19T04:11:44;99518.25;;;1.81;88.80
77027;BME280;65956;52.986;17.490;2023-10-19T04:14:17;99511.81;;;1.82;88.82
77027;BME280;65956;52.986;17.490;2023-10-19T04:16:44;99511.29;;;1.83;88.91
77027;BME280;65956;52.986;17.490;2023-10-19T04:19:11;99508.31;;;1.83;88.73
77027;BME280;65956;52.986;17.490;2023-10-19T04:21:37;99506.54;;;1.84;88.84
77027;BME280;65956;52.986;17.490;2023-10-19T04:24:10;99504.61;;;1.85;88.77
77027;BME280;65956;52.986;17.490;2023-10-19T04:26:37;99503.22;;;1.85;88.79
77027;BME280;65956;52.986;17.490;2023-10-19T04:29:04;99498.17;;;1.85;88.71
77027;BME280;65956;52.986;17.490;2023-10-19T04:31:38;99496.66;;;1.84;88.66
77027;BME280;65956;52.986;17.490;2023-10-19T04:34:17;99495.23;;;1.84;88.59
77027;BME280;65956;52.986;17.490;2023-10-19T04:36:50;99483.04;;;1.83;88.73
77027;BME280;65956;52.986;17.490;2023-10-19T04:39:16;99478.23;;;1.82;88.74
77027;BME280;65956;52.986;17.490;2023-10-19T04:41:45;99467.23;;;1.81;88.69
77027;BME280;65956;52.986;17.490;2023-10-19T04:44:14;99466.52;;;1.81;88.73
77027;BME280;65956;52.986;17.490;2023-10-19T04:46:42;99463.08;;;1.82;88.83
77027;BME280;65956;52.986;17.490;2023-10-19T04:49:08;99459.40;;;1.82;88.78
77027;BME280;65956;52.986;17.490;2023-10-19T04:51:34;99455.91;;;1.81;88.88
77027;BME280;65956;52.986;17.490;2023-10-19T04:54:05;99455.14;;;1.81;88.79
77027;BME280;65956;52.986;17.490;2023-10-19T04:56:34;99452.35;;;1.83;88.65
77027;BME280;65956;52.986;17.490;2023-10-19T04:59:02;99449.44;;;1.82;88.62
77027;BME280;65956;52.986;17.490;2023-10-19T05:01:29;99443.56;;;1.83;88.64
77027;BME280;65956;52.986;17.490;2023-10-19T05:03:55;99437.52;;;1.85;88.74
77027;BME280;65956;52.986;17.490;2023-10-19T05:06:21;99444.34;;;1.87;88.88
77027;BME280;65956;52.986;17.490;2023-10-19T05:08:48;99444.71;;;1.91;88.96
77027;BME280;65956;52.986;17.490;2023-10-19T05:11:14;99441.77;;;1.94;89.03
77027;BME280;65956;52.986;17.490;2023-10-19T05:13:39;99446.81;;;1.98;89.05
77027;BME280;65956;52.986;17.490;2023-10-19T05:16:05;99448.52;;;2.02;89.02
77027;BME280;65956;52.986;17.490;2023-10-19T05:18:33;99450.27;;;2.05;89.02
77027;BME280;65956;52.986;17.490;2023-10-19T05:20:59;99458.95;;;2.06;89.00
77027;BME280;65956;52.986;17.490;2023-10-19T05:23:27;99461.05;;;2.09;88.94
77027;BME280;65956;52.986;17.490;2023-10-19T05:26:00;99456.79;;;2.11;88.89
77027;BME280;65956;52.986;17.490;2023-10-19T05:28:28;99458.52;;;2.13;88.87
77027;BME280;65956;52.986;17.490;2023-10-19T05:30:54;99457.58;;;2.16;88.85
77027;BME280;65956;52.986;17.490;2023-10-19T05:33:20;99455.23;;;2.18;88.69
77027;BME280;65956;52.986;17.490;2023-10-19T05:35:47;99451.50;;;2.22;88.51
77027;BME280;65956;52.986;17.490;2023-10-19T05:38:13;99444.02;;;2.25;88.58
77027;BME280;65956;52.986;17.490;2023-10-19T05:40:39;99438.45;;;2.32;88.71
77027;BME280;65956;52.986;17.490;2023-10-19T05:43:09;99438.30;;;2.37;88.66
77027;BME280;65956;52.986;17.490;2023-10-19T05:45:35;99449.41;;;2.42;88.45
77027;BME280;65956;52.986;17.490;2023-10-19T05:48:04;99450.63;;;2.45;88.42
77027;BME280;65956;52.986;17.490;2023-10-19T05:50:33;99452.64;;;2.51;88.30
77027;BME280;65956;52.986;17.490;2023-10-19T05:53:00;99444.27;;;2.55;88.43
77027;BME280;65956;52.986;17.490;2023-10-19T05:55:26;99443.02;;;2.59;88.10
77027;BME280;65956;52.986;17.490;2023-10-19T05:57:52;99443.84;;;2.65;88.10
77027;BME280;65956;52.986;17.490;2023-10-19T06:00:18;99446.42;;;2.69;88.10
77027;BME280;65956;52.986;17.490;2023-10-19T06:02:48;99444.23;;;2.74;87.81
77027;BME280;65956;52.986;17.490;2023-10-19T06:05:18;99448.49;;;2.79;87.78
77027;BME280;65956;52.986;17.490;2023-10-19T06:07:45;99447.49;;;2.85;87.78
77027;BME280;65956;52.986;17.490;2023-10-19T06:10:17;99438.14;;;2.90;87.68
77027;BME280;65956;52.986;17.490;2023-10-19T06:12:44;99436.39;;;2.96;87.65
77027;BME280;65956;52.986;17.490;2023-10-19T06:15:12;99431.18;;;3.00;87.81
77027;BME280;65956;52.986;17.490;2023-10-19T06:17:42;99436.22;;;3.05;87.49
77027;BME280;65956;52.986;17.490;2023-10-19T06:20:10;99439.55;;;3.11;87.37
77027;BME280;65956;52.986;17.490;2023-10-19T06:22:53;99443.98;;;3.16;87.25
77027;BME280;65956;52.986;17.490;2023-10-19T06:25:20;99445.03;;;3.22;87.24
77027;BME280;65956;52.986;17.490;2023-10-19T06:27:49;99447.64;;;3.28;87.24
77027;BME280;65956;52.986;17.490;2023-10-19T06:30:17;99451.29;;;3.33;86.97
77027;BME280;65956;52.986;17.490;2023-10-19T06:32:51;99446.73;;;3.38;87.03
77027;BME280;65956;52.986;17.490;2023-10-19T06:35:19;99441.59;;;3.43;86.77
77027;BME280;65956;52.986;17.490;2023-10-19T06:37:46;99438.30;;;3.48;86.93
77027;BME280;65956;52.986;17.490;2023-10-19T06:40:14;99434.02;;;3.55;87.00
77027;BME280;65956;52.986;17.490;2023-10-19T06:42:44;99435.77;;;3.61;86.71
77027;BME280;65956;52.986;17.490;2023-10-19T06:45:14;99437.38;;;3.64;86.44
77027;BME280;65956;52.986;17.490;2023-10-19T06:47:48;99441.38;;;3.70;86.18
77027;BME280;65956;52.986;17.490;2023-10-19T06:50:17;99435.41;;;3.75;86.15
77027;BME280;65956;52.986;17.490;2023-10-19T06:52:44;99425.98;;;3.81;86.05
77027;BME280;65956;52.986;17.490;2023-10-19T06:55:12;99419.69;;;3.86;86.00
77027;BME280;65956;52.986;17.490;2023-10-19T06:57:50;99412.80;;;3.93;85.78
77027;BME280;65956;52.986;17.490;2023-10-19T07:00:18;99408.39;;;3.99;85.64
77027;BME280;65956;52.986;17.490;2023-10-19T07:02:46;99409.06;;;4.06;85.51
77027;BME280;65956;52.986;17.490;2023-10-19T07:05:13;99402.17;;;4.13;85.45
77027;BME280;65956;52.986;17.490;2023-10-19T07:07:45;99402.33;;;4.19;85.26
77027;BME280;65956;52.986;17.490;2023-10-19T07:10:12;99401.31;;;4.24;84.98
77027;BME280;65956;52.986;17.490;2023-10-19T07:12:41;99398.09;;;4.30;84.73
77027;BME280;65956;52.986;17.490;2023-10-19T07:15:10;99390.04;;;4.36;84.65
77027;BME280;65956;52.986;17.490;2023-10-19T07:17:40;99387.04;;;4.38;84.31
77027;BME280;65956;52.986;17.490;2023-10-19T07:20:08;99384.80;;;4.41;84.08
77027;BME280;65956;52.986;17.490;2023-10-19T07:22:47;99382.36;;;4.43;83.90
77027;BME280;65956;52.986;17.490;2023-10-19T07:25:13;99382.09;;;4.45;83.59
77027;BME280;65956;52.986;17.490;2023-10-19T07:31:40;99370.34;;;4.57;83.54
77027;BME280;65956;52.986;17.490;2023-10-19T07:34:06;99365.77;;;4.64;83.33
77027;BME280;65956;52.986;17.490;2023-10-19T07:36:34;99363.61;;;4.69;83.26
77027;BME280;65956;52.986;17.490;2023-10-19T07:39:02;99361.23;;;4.74;83.12
77027;BME280;65956;52.986;17.490;2023-10-19T07:41:28;99360.67;;;4.80;82.67
77027;BME280;65956;52.986;17.490;2023-10-19T07:44:00;99357.52;;;4.87;82.63
77027;BME280;65956;52.986;17.490;2023-10-19T07:46:26;99349.91;;;4.95;82.69
77027;BME280;65956;52.986;17.490;2023-10-19T07:48:54;99346.01;;;5.00;82.10
77027;BME280;65956;52.986;17.490;2023-10-19T07:51:20;99339.02;;;5.05;82.18
77027;BME280;65956;52.986;17.490;2023-10-19T07:53:46;99341.76;;;5.11;82.32
77027;BME280;65956;52.986;17.490;2023-10-19T07:56:12;99341.65;;;5.17;82.19
77027;BME280;65956;52.986;17.490;2023-10-19T07:58:38;99332.20;;;5.21;81.83
77027;BME280;65956;52.986;17.490;2023-10-19T08:01:07;99329.23;;;5.25;81.76
77027;BME280;65956;52.986;17.490;2023-10-19T08:03:33;99323.45;;;5.28;81.52
77027;BME280;65956;52.986;17.490;2023-10-19T08:05:59;99321.59;;;5.33;81.21
77027;BME280;65956;52.986;17.490;2023-10-19T08:08:25;99316.84;;;5.40;81.45
77027;BME280;65956;52.986;17.490;2023-10-19T08:10:54;99315.89;;;5.48;81.41
77027;BME280;65956;52.986;17.490;2023-10-19T08:13:20;99316.86;;;5.57;81.00
77027;BME280;65956;52.986;17.490;2023-10-19T08:15:46;99311.11;;;5.64;80.77
77027;BME280;65956;52.986;17.490;2023-10-19T08:18:11;99313.38;;;5.71;80.57
77027;BME280;65956;52.986;17.490;2023-10-19T08:20:40;99311.94;;;5.78;80.16
77027;BME280;65956;52.986;17.490;2023-10-19T08:23:06;99304.14;;;5.86;79.94
77027;BME280;65956;52.986;17.490;2023-10-19T08:25:32;99297.90;;;5.94;79.97
77027;BME280;65956;52.986;17.490;2023-10-19T08:27:58;99301.64;;;5.99;79.83
77027;BME280;65956;52.986;17.490;2023-10-19T08:30:24;99303.27;;;6.02;79.65
77027;BME280;65956;52.986;17.490;2023-10-19T08:32:51;99300.47;;;6.05;79.64
77027;BME280;65956;52.986;17.490;2023-10-19T08:35:19;99298.68;;;6.06;79.31
77027;BME280;65956;52.986;17.490;2023-10-19T08:37:52;99299.09;;;6.11;79.34
77027;BME280;65956;52.986;17.490;2023-10-19T08:40:19;99293.34;;;6.16;79.22
77027;BME280;65956;52.986;17.490;2023-10-19T08:42:45;99290.80;;;6.24;79.12
77027;BME280;65956;52.986;17.490;2023-10-19T08:45:12;99282.63;;;6.31;78.73
77027;BME280;65956;52.986;17.490;2023-10-19T08:47:54;99278.64;;;6.40;78.34
77027;BME280;65956;52.986;17.490;2023-10-19T08:50:24;99279.12;;;6.49;78.26
77027;BME280;65956;52.986;17.490;2023-10-19T08:52:53;99275.42;;;6.60;78.17
77027;BME280;65956;52.986;17.490;2023-10-19T08:55:23;99264.00;;;6.68;77.68
77027;BME280;65956;52.986;17.490;2023-10-19T08:57:51;99256.86;;;6.77;77.24
77027;BME280;65956;52.986;17.490;2023-10-19T09:00:18;99256.05;;;6.86;77.20
77027;BME280;65956;52.986;17.490;2023-10-19T09:02:45;99256.66;;;6.96;77.04
77027;BME280;65956;52.986;17.490;2023-10-19T09:05:12;99257.54;;;7.07;76.74
77027;BME280;65956;52.986;17.490;2023-10-19T09:07:46;99254.89;;;7.22;76.14
77027;BME280;65956;52.986;17.490;2023-10-19T09:10:16;99257.23;;;7.37;76.11
77027;BME280;65956;52.986;17.490;2023-10-19T09:12:42;99252.51;;;7.53;75.66
77027;BME280;65956;52.986;17.490;2023-10-19T09:15:21;99249.50;;;7.67;75.80
77027;BME280;65956;52.986;17.490;2023-10-19T09:17:48;99241.58;;;7.80;74.96
77027;BME280;65956;52.986;17.490;2023-10-19T09:20:15;99238.45;;;7.85;73.68
77027;BME280;65956;52.986;17.490;2023-10-19T09:22:56;99234.76;;;7.87;73.51
77027;BME280;65956;52.986;17.490;2023-10-19T09:25:27;99228.70;;;7.91;73.69
77027;BME280;65956;52.986;17.490;2023-10-19T09:27:53;99227.22;;;7.95;73.38
77027;BME280;65956;52.986;17.490;2023-10-19T09:30:19;99223.55;;;7.99;73.27
77027;BME280;65956;52.986;17.490;2023-10-19T09:32:47;99227.55;;;8.04;73.66
77027;BME280;65956;52.986;17.490;2023-10-19T09:35:15;99227.36;;;8.08;73.12
77027;BME280;65956;52.986;17.490;2023-10-19T09:37:42;99220.79;;;8.08;72.39
77027;BME280;65956;52.986;17.490;2023-10-19T09:40:10;99220.86;;;8.10;72.82
77027;BME280;65956;52.986;17.490;2023-10-19T09:42:47;99212.13;;;8.15;72.55
77027;BME280;65956;52.986;17.490;2023-10-19T09:45:19;99211.36;;;8.20;71.89
77027;BME280;65956;52.986;17.490;2023-10-19T09:47:50;99205.21;;;8.24;71.99
77027;BME280;65956;52.986;17.490;2023-10-19T09:50:17;99198.46;;;8.30;72.03
77027;BME280;65956;52.986;17.490;2023-10-19T09:52:43;99195.17;;;8.35;71.57
77027;BME280;65956;52.986;17.490;2023-10-19T09:55:15;99195.92;;;8.40;71.63
77027;BME280;65956;52.986;17.490;2023-10-19T09:58:06;99201.02;;;8.41;71.00
77027;BME280;65956;52.986;17.490;2023-10-19T10:00:35;99207.04;;;8.40;70.97
77027;BME280;65956;52.986;17.490;2023-10-19T10:03:01;99205.27;;;8.40;71.58
77027;BME280;65956;52.986;17.490;2023-10-19T10:10:46;99212.98;;;8.49;71.87
77027;BME280;65956;52.986;17.490;2023-10-19T10:15:56;99202.84;;;8.51;71.25
77027;BME280;65956;52.986;17.490;2023-10-19T10:18:28;99202.48;;;8.55;71.46
77027;BME280;65956;52.986;17.490;2023-10-19T10:21:14;99200.61;;;8.60;71.55
77027;BME280;65956;52.986;17.490;2023-10-19T10:23:46;99208.72;;;8.63;71.33
77027;BME280;65956;52.986;17.490;2023-10-19T10:26:17;99208.33;;;8.63;70.98
77027;BME280;65956;52.986;17.490;2023-10-19T10:28:48;99201.27;;;8.64;70.48
77027;BME280;65956;52.986;17.490;2023-10-19T10:31:19;99200.16;;;8.66;70.58
77027;BME280;65956;52.986;17.490;2023-10-19T10:33:50;99200.65;;;8.68;70.46
77027;BME280;65956;52.986;17.490;2023-10-19T10:36:18;99201.39;;;8.70;70.31
77027;BME280;65956;52.986;17.490;2023-10-19T10:38:46;99195.68;;;8.72;70.03
77027;BME280;65956;52.986;17.490;2023-10-19T10:41:19;99196.17;;;8.74;70.22
77027;BME280;65956;52.986;17.490;2023-10-19T10:43:56;99199.44;;;8.76;69.93
77027;BME280;65956;52.986;17.490;2023-10-19T10:46:26;99195.86;;;8.75;69.88
77027;BME280;65956;52.986;17.490;2023-10-19T10:48:55;99192.95;;;8.79;69.75
77027;BME280;65956;52.986;17.490;2023-10-19T10:51:23;99187.27;;;8.85;69.86
77027;BME280;65956;52.986;17.490;2023-10-19T10:53:51;99188.41;;;8.91;70.09
77027;BME280;65956;52.986;17.490;2023-10-19T10:56:18;99180.05;;;8.99;69.68
77027;BME280;65956;52.986;17.490;2023-10-19T10:58:45;99170.63;;;9.06;69.36
77027;BME280;65956;52.986;17.490;2023-10-19T11:01:12;99166.46;;;9.16;69.34
77027;BME280;65956;52.986;17.490;2023-10-19T11:03:40;99167.52;;;9.23;68.62
77027;BME280;65956;52.986;17.490;2023-10-19T11:06:07;99158.00;;;9.26;67.55
77027;BME280;65956;52.986;17.490;2023-10-19T11:08:37;99153.89;;;9.29;67.47
77027;BME280;65956;52.986;17.490;2023-10-19T11:11:08;99144.29;;;9.33;67.05
77027;BME280;65956;52.986;17.490;2023-10-19T11:13:38;99137.88;;;9.39;66.67
77027;BME280;65956;52.986;17.490;2023-10-19T11:16:06;99134.80;;;9.44;66.26
77027;BME280;65956;52.986;17.490;2023-10-19T11:18:41;99136.46;;;9.46;66.38
77027;BME280;65956;52.986;17.490;2023-10-19T11:21:10;99137.56;;;9.45;65.74
77027;BME280;65956;52.986;17.490;2023-10-19T11:23:45;99139.94;;;9.41;65.71
77027;BME280;65956;52.986;17.490;2023-10-19T11:26:12;99137.46;;;9.34;65.61
77027;BME280;65956;52.986;17.490;2023-10-19T11:28:40;99129.90;;;9.29;65.80
77027;BME280;65956;52.986;17.490;2023-10-19T11:31:21;99125.77;;;9.28;66.54
77027;BME280;65956;52.986;17.490;2023-10-19T11:33:53;99123.94;;;9.27;66.48
77027;BME280;65956;52.986;17.490;2023-10-19T11:36:22;99110.69;;;9.32;66.91
77027;BME280;65956;52.986;17.490;2023-10-19T11:38:51;99111.73;;;9.37;67.31
77027;BME280;65956;52.986;17.490;2023-10-19T11:41:20;99107.29;;;9.37;66.50
77027;BME280;65956;52.986;17.490;2023-10-19T11:43:48;99098.23;;;9.37;66.44
77027;BME280;65956;52.986;17.490;2023-10-19T11:46:15;99100.30;;;9.35;66.30
77027;BME280;65956;52.986;17.490;2023-10-19T11:48:42;99097.67;;;9.37;66.80
77027;BME280;65956;52.986;17.490;2023-10-19T11:51:11;99087.34;;;9.36;66.31
77027;BME280;65956;52.986;17.490;2023-10-19T11:53:38;99076.29;;;9.33;66.17
77027;BME280;65956;52.986;17.490;2023-10-19T11:56:08;99074.30;;;9.32;66.48
77027;BME280;65956;52.986;17.490;2023-10-19T11:58:36;99067.40;;;9.32;66.31
77027;BME280;65956;52.986;17.490;2023-10-19T12:01:03;99070.91;;;9.35;66.34
77027;BME280;65956;52.986;17.490;2023-10-19T12:03:38;99082.58;;;9.40;66.50
77027;BME280;65956;52.986;17.490;2023-10-19T12:06:06;99080.36;;;9.42;65.88
77027;BME280;65956;52.986;17.490;2023-10-19T12:08:37;99082.52;;;9.44;65.57
77027;BME280;65956;52.986;17.490;2023-10-19T12:11:04;99086.73;;;9.46;66.09
77027;BME280;65956;52.986;17.490;2023-10-19T12:13:30;99082.85;;;9.49;66.38
77027;BME280;65956;52.986;17.490;2023-10-19T12:15:59;99073.15;;;9.51;66.20
77027;BME280;65956;52.986;17.490;2023-10-19T12:18:25;99066.38;;;9.49;66.37
77027;BME280;65956;52.986;17.490;2023-10-19T12:20:55;99058.86;;;9.47;66.24
77027;BME280;65956;52.986;17.490;2023-10-19T12:23:26;99041.13;;;9.46;66.11
77027;BME280;65956;52.986;17.490;2023-10-19T12:25:51;99038.66;;;9.42;66.13
77027;BME280;65956;52.986;17.490;2023-10-19T12:28:18;99039.85;;;9.36;66.13
77027;BME280;65956;52.986;17.490;2023-10-19T12:30:45;99053.50;;;9.30;66.21
77027;BME280;65956;52.986;17.490;2023-10-19T12:33:11;99052.08;;;9.26;66.32
77027;BME280;65956;52.986;17.490;2023-10-19T12:35:38;99047.14;;;9.24;66.71
77027;BME280;65956;52.986;17.490;2023-10-19T12:38:23;99043.71;;;9.20;66.56
77027;BME280;65956;52.986;17.490;2023-10-19T12:40:50;99036.73;;;9.17;66.89
77027;BME280;65956;52.986;17.490;2023-10-19T12:43:20;99033.86;;;9.18;67.15
77027;BME280;65956;52.986;17.490;2023-10-19T12:45:48;99028.15;;;9.17;66.88
77027;BME280;65956;52.986;17.490;2023-10-19T12:48:20;99018.86;;;9.17;67.09
77027;BME280;65956;52.986;17.490;2023-10-19T12:50:47;99014.17;;;9.17;67.16
77027;BME280;65956;52.986;17.490;2023-10-19T12:53:13;99002.98;;;9.17;67.51
77027;BME280;65956;52.986;17.490;2023-10-19T12:55:39;98997.89;;;9.16;67.52
77027;BME280;65956;52.986;17.490;2023-10-19T12:58:05;98995.66;;;9.14;67.40
77027;BME280;65956;52.986;17.490;2023-10-19T13:00:36;98986.21;;;9.12;67.62
77027;BME280;65956;52.986;17.490;2023-10-19T13:03:04;98983.29;;;9.14;67.97
77027;BME280;65956;52.986;17.490;2023-10-19T13:05:37;98980.83;;;9.13;67.91
77027;BME280;65956;52.986;17.490;2023-10-19T13:08:12;98983.84;;;9.16;68.00
77027;BME280;65956;52.986;17.490;2023-10-19T13:10:43;98985.11;;;9.17;67.63
77027;BME280;65956;52.986;17.490;2023-10-19T13:13:11;98988.45;;;9.22;67.52
77027;BME280;65956;52.986;17.490;2023-10-19T13:15:39;98980.89;;;9.27;67.54
77027;BME280;65956;52.986;17.490;2023-10-19T13:18:07;98976.46;;;9.29;67.08
77027;BME280;65956;52.986;17.490;2023-10-19T13:20:36;98979.80;;;9.30;66.76
77027;BME280;65956;52.986;17.490;2023-10-19T13:23:07;98981.54;;;9.28;66.85
77027;BME280;65956;52.986;17.490;2023-10-19T13:25:38;98979.95;;;9.26;66.71
77027;BME280;65956;52.986;17.490;2023-10-19T13:28:11;98975.52;;;9.25;66.96
77027;BME280;65956;52.986;17.490;2023-10-19T13:30:39;98973.20;;;9.25;66.97
77027;BME280;65956;52.986;17.490;2023-10-19T13:33:06;98978.68;;;9.25;67.17
77027;BME280;65956;52.986;17.490;2023-10-19T13:35:38;98982.25;;;9.24;67.31
77027;BME280;65956;52.986;17.490;2023-10-19T13:38:05;98983.36;;;9.20;67.26
77027;BME280;65956;52.986;17.490;2023-10-19T13:40:32;98980.10;;;9.15;67.39
77027;BME280;65956;52.986;17.490;2023-10-19T13:42:59;98966.98;;;9.10;67.72
77027;BME280;65956;52.986;17.490;2023-10-19T13:45:25;98958.02;;;9.04;67.87
77027;BME280;65956;52.986;17.490;2023-10-19T13:47:51;98956.91;;;9.00;68.10
77027;BME280;65956;52.986;17.490;2023-10-19T13:50:22;98956.34;;;8.98;68.39
77027;BME280;65956;52.986;17.490;2023-10-19T13:52:53;98962.60;;;8.94;68.36
77027;BME280;65956;52.986;17.490;2023-10-19T13:55:20;98951.56;;;8.88;68.52